Coronel Enrique Soto Cano Air Base
MHSC : now visible

Airfield :











YOU CAN JOIN US ON...

 
LOGIN :

Register | Disclaimer

   EN    FR    IT 

 









Legend :    VFR   Marginal VFR   IFR   Intensive IFR   Very Intensive IFR
Visi :
Ceiling :
>= 8 km
>= 3000ft
5 to 8 km
1000 to 3000 ft
1500m to 5 km
500 to 1000 ft
800 to 1500m
200 to 500 ft
< 800m
< 200 ft
Symbols :   Thunderstorms  Fog  Heavy snow  Heavy precipitations  Wind > 20 kt






- Airport Elevation : 2061 ft
- IATA code : XPL


MHSC - Coronel Enrique Soto Cano Air Base

CURRENT METAR :
  • 250158Z VRB04KT 9999 BKN085 BKN190 21/20 A3004 RMK AO2A LAST LTG DSNT SW SLP141 WND DATA ESTMD

EXPIRED METARs :
  • 250055Z VRB04KT 9999 VCTS BKN085 BKN190 26/16 A2997 RMK AO2A SLP114 WND DATA ESTMD
  • 242355Z VRB04KT 9999 VCTS BKN085 BKN190 26/16 A2997 RMK AO2A SLP114 WND DATA ESTMD

TAF TAF MHSC
Valid from the 24 at 22:00 until the 26 at 04:00 UTC


242200Z 2422/2604 18009KT 8000 -SHRA SCT040 BKN050 QNH2990INS
TEMPO 2423/2506 6000 -TSRA BKN040CB OVC050
BECMG 2505/2506 VRB06KT 9999 NSW BKN050 QNH3002INS
BECMG 2511/2512 VRB06KT 9999 SCT040 BKN080 QNH2996INS
BECMG 2520/2521 18009KT 8000 -SHRA SCT040 BKN060 QNH2990INS
TEMPO 2521/2604 6000 -TSRA BKN040CB OVC050 TX32/2521Z TN24/2512Z LAST NO AMDS AFT 2402 NEXT 2414Z
MHTG FIR / North America



MET'MAP, your aeronautical weather chart ! - Copyright ORBIFLY December 2007 - Disclaimer

ORBIFLY MET'MAP TEAM :

Programming & Development : Alexandra Zaïnal
Concept & original design : Baudouin d'Aumeries
Assistance for programming : Marc-Olivier Méhu
Technical & hardware support : Manuel Goepfert

Contact : metmap@orbifly.com




SOURCES & CREDITS :

   NOAA       Earth
Advisory